Time;durP1;ratioP1;P1;durP2;ratioP2;P2;SDS_P1;SDS_P2;PMS_P1;PMS_P2;Temp;Humidity;BMP_temperature;BMP_pressure;BME280_temperature;BME280_humidity;BME280_pressure;Samples;Min_cycle;Max_cycle;Signal;HPM_P1;HPM_P2
2022/09/11 00:01:13;;;;;;;20.85;12.20;;;16.00;99.90;;;;;;5052142;28;20062;-71
2022/09/11 00:03:39;;;;;;;18.27;11.13;;;16.00;99.90;;;;;;5058551;28;20070;-71
2022/09/11 00:06:07;;;;;;;;;;;16.10;99.90;;;;;;5061249;28;20041;-71
2022/09/11 00:08:33;;;;;;;18.10;11.07;;;16.00;99.90;;;;;;5055541;28;20392;-71
2022/09/11 00:11:04;;;;;;;17.63;10.88;;;16.00;99.90;;;;;;5061347;28;20037;-71
2022/09/11 00:13:30;;;;;;;18.20;11.57;;;15.90;99.90;;;;;;5059025;28;20079;-72
2022/09/11 00:15:56;;;;;;;17.83;10.88;;;15.80;99.90;;;;;;5045441;28;20045;-72
2022/09/11 00:18:22;;;;;;;18.23;10.73;;;15.80;99.90;;;;;;5055966;28;20115;-71
2022/09/11 00:20:52;;;;;;;21.98;12.07;;;15.70;99.90;;;;;;5064741;28;20865;-71
2022/09/11 00:23:20;;;;;;;17.67;11.10;;;15.70;99.90;;;;;;5052251;28;20131;-71
2022/09/11 00:25:46;;;;;;;17.00;10.75;;;15.60;99.90;;;;;;5051793;28;20152;-71
2022/09/11 00:28:14;;;;;;;17.55;10.85;;;15.60;99.90;;;;;;5053860;28;20361;-71
2022/09/11 00:30:42;;;;;;;16.55;10.35;;;15.60;99.90;;;;;;5068105;28;20044;-71
2022/09/11 00:33:09;;;;;;;18.02;10.07;;;15.70;99.90;;;;;;5050490;28;20509;-71
2022/09/11 00:35:35;;;;;;;15.60;9.65;;;15.70;99.90;;;;;;5054300;28;20073;-71
2022/09/11 00:38:00;;;;;;;17.13;10.65;;;15.70;99.90;;;;;;5060149;28;20449;-71
2022/09/11 00:40:26;;;;;;;18.52;10.60;;;15.60;99.90;;;;;;5062537;28;20071;-71
2022/09/11 00:42:52;;;;;;;16.58;10.30;;;15.60;99.90;;;;;;5064006;28;20092;-71
2022/09/11 00:45:25;;;;;;;;;;;15.60;99.90;;;;;;5064105;28;20120;-71
2022/09/11 00:47:53;;;;;;;19.30;9.85;;;15.70;99.90;;;;;;5065989;28;19927;-71
2022/09/11 00:50:22;;;;;;;16.17;10.43;;;15.70;99.90;;;;;;5070049;28;20040;-71
2022/09/11 00:52:53;;;;;;;15.85;10.38;;;15.70;99.90;;;;;;5054809;28;20055;-71
2022/09/11 00:55:22;;;;;;;15.40;9.90;;;15.70;99.90;;;;;;5068710;28;20474;-71
2022/09/11 00:57:58;;;;;;;14.55;9.02;;;15.70;99.90;;;;;;5063120;28;20124;-71
2022/09/11 01:00:24;;;;;;;;;;;15.70;99.90;;;;;;5032799;28;20048;-71
2022/09/11 01:02:52;;;;;;;15.68;9.30;;;15.70;99.90;;;;;;5058301;28;19939;-71
2022/09/11 01:05:18;;;;;;;14.35;9.43;;;15.70;99.90;;;;;;5060726;28;20062;-72
2022/09/11 01:07:45;;;;;;;;;;;15.70;99.90;;;;;;5061830;28;20044;-72
2022/09/11 01:10:12;;;;;;;14.48;8.57;;;15.70;99.90;;;;;;5052372;28;19963;-71
2022/09/11 01:13:06;;;;;;;13.02;8.48;;;15.70;99.90;;;;;;5052595;28;20065;-71
2022/09/11 01:15:41;;;;;;;13.50;8.75;;;15.70;99.90;;;;;;5059757;28;20052;-71
2022/09/11 01:18:15;;;;;;;16.05;9.77;;;15.60;99.90;;;;;;5055972;28;20040;-71
2022/09/11 01:21:01;;;;;;;11.82;8.30;;;15.60;99.90;;;;;;5054661;28;20132;-71
2022/09/11 01:23:40;;;;;;;14.27;8.65;;;15.60;99.90;;;;;;5064810;28;20074;-71
2022/09/11 01:26:31;;;;;;;13.75;9.15;;;15.50;99.90;;;;;;5070471;28;20127;-71
2022/09/11 01:29:11;;;;;;;13.38;8.80;;;15.40;99.90;;;;;;5046632;28;20036;-71
2022/09/11 01:31:45;;;;;;;13.15;8.63;;;15.40;99.90;;;;;;5055491;28;20130;-71
2022/09/11 01:34:46;;;;;;;13.02;8.57;;;15.40;99.90;;;;;;5064302;28;20064;-71
2022/09/11 01:37:51;;;;;;;14.82;9.57;;;15.30;99.90;;;;;;5054882;28;20052;-72
2022/09/11 01:40:28;;;;;;;13.65;8.90;;;15.40;99.90;;;;;;5071043;22;20068;-71
2022/09/11 01:43:02;;;;;;;13.07;8.88;;;15.40;99.90;;;;;;5075251;28;20047;-71
2022/09/11 01:45:30;;;;;;;14.73;9.65;;;15.40;99.90;;;;;;5060890;28;20048;-71
2022/09/11 01:47:58;;;;;;;13.75;9.07;;;15.40;99.90;;;;;;5071604;28;20654;-71
2022/09/11 01:50:24;;;;;;;13.45;9.38;;;15.40;99.90;;;;;;5073202;28;20307;-71
2022/09/11 01:52:54;;;;;;;;;;;15.40;99.90;;;;;;5079409;28;20394;-71
2022/09/11 01:55:33;;;;;;;14.60;8.90;;;15.40;99.90;;;;;;5077150;28;20409;-71
2022/09/11 01:58:16;;;;;;;12.73;8.90;;;15.40;99.90;;;;;;5075931;28;20141;-71
2022/09/11 02:00:45;;;;;;;15.70;8.57;;;15.40;99.90;;;;;;5078130;28;20183;-71
2022/09/11 02:03:21;;;;;;;15.70;9.02;;;15.40;99.90;;;;;;5078098;28;20089;-71
2022/09/11 02:06:02;;;;;;;11.73;7.85;;;15.30;99.90;;;;;;5078120;28;20558;-71
2022/09/11 02:08:43;;;;;;;13.75;8.20;;;15.30;99.90;;;;;;5081542;28;20297;-71
2022/09/11 02:11:11;;;;;;;15.50;9.23;;;15.30;99.90;;;;;;5076176;28;20065;-71
2022/09/11 02:13:40;;;;;;;15.35;9.38;;;15.30;99.90;;;;;;5079618;28;20349;-71
2022/09/11 02:16:15;;;;;;;13.95;9.15;;;15.30;99.90;;;;;;5084165;28;20036;-71
2022/09/11 02:18:50;;;;;;;12.80;9.18;;;15.30;99.90;;;;;;5078610;28;20123;-71
2022/09/11 02:21:16;;;;;;;13.07;8.45;;;15.30;99.90;;;;;;5072533;28;20040;-71
2022/09/11 02:23:41;;;;;;;12.38;8.82;;;15.20;99.90;;;;;;5082024;28;20101;-71
2022/09/11 02:26:09;;;;;;;12.05;7.82;;;15.10;99.90;;;;;;5083439;28;20040;-71
2022/09/11 02:28:36;;;;;;;14.23;8.43;;;15.10;99.90;;;;;;5076681;28;20055;-71
2022/09/11 02:31:02;;;;;;;;;;;15.10;99.90;;;;;;5081855;28;20043;-71
2022/09/11 02:33:35;;;;;;;12.52;8.13;;;15.00;99.90;;;;;;5089579;28;19923;-71
2022/09/11 02:36:37;;;;;;;11.93;8.02;;;15.00;99.90;;;;;;5074609;28;20443;-71
2022/09/11 02:39:24;;;;;;;16.85;9.00;;;15.00;99.90;;;;;;5074292;28;20644;-71
2022/09/11 02:42:17;;;;;;;12.65;8.43;;;15.00;99.90;;;;;;5075924;28;20528;-71
2022/09/11 02:44:46;;;;;;;14.07;9.05;;;15.00;99.90;;;;;;5075953;28;20048;-71
2022/09/11 02:47:39;;;;;;;14.48;8.63;;;15.00;99.90;;;;;;5075879;28;20105;-71
2022/09/11 02:50:39;;;;;;;15.10;8.93;;;15.00;99.90;;;;;;5078106;28;20028;-72
2022/09/11 02:53:19;;;;;;;12.40;8.65;;;14.90;99.90;;;;;;5079534;28;20047;-71
2022/09/11 02:56:06;;;;;;;15.63;8.77;;;14.90;99.90;;;;;;5077373;28;20040;-71
2022/09/11 02:58:35;;;;;;;11.77;8.30;;;14.80;99.90;;;;;;5073674;28;20044;-71
2022/09/11 03:01:03;;;;;;;12.52;8.27;;;14.80;99.90;;;;;;5072175;28;20499;-71
2022/09/11 03:03:39;;;;;;;14.10;8.25;;;14.70;99.90;;;;;;5080298;28;20036;-71
2022/09/11 03:06:12;;;;;;;14.27;8.65;;;14.70;99.90;;;;;;5071321;28;20032;-71
2022/09/11 03:08:39;;;;;;;12.10;7.80;;;14.70;99.90;;;;;;5088599;28;20090;-71
2022/09/11 03:11:05;;;;;;;12.55;8.18;;;14.70;99.90;;;;;;5077062;28;20079;-71
2022/09/11 03:13:31;;;;;;;14.43;9.02;;;14.60;99.90;;;;;;5070692;28;20127;-71
2022/09/11 03:16:00;;;;;;;14.13;8.93;;;14.70;99.90;;;;;;5070985;28;20439;-71
2022/09/11 03:18:25;;;;;;;13.65;8.75;;;14.70;99.90;;;;;;5080690;28;20043;-71
2022/09/11 03:20:51;;;;;;;13.95;8.60;;;14.70;99.90;;;;;;5071714;28;20036;-71
2022/09/11 03:23:16;;;;;;;15.25;8.70;;;14.70;99.90;;;;;;5074880;28;20513;-71
2022/09/11 03:25:42;;;;;;;12.52;8.43;;;14.70;99.90;;;;;;5076314;28;20660;-71
2022/09/11 03:28:08;;;;;;;11.90;7.83;;;14.70;99.90;;;;;;5076386;28;20185;-71
2022/09/11 03:30:34;;;;;;;13.07;8.50;;;14.70;99.90;;;;;;5081034;28;20272;-72
2022/09/11 03:33:00;;;;;;;11.38;8.10;;;14.60;99.90;;;;;;5077634;28;20106;-71
2022/09/11 03:35:26;;;;;;;16.23;8.15;;;14.60;99.90;;;;;;5073290;28;20240;-71
2022/09/11 03:37:54;;;;;;;12.07;7.80;;;14.50;99.90;;;;;;5077636;28;20497;-71
2022/09/11 03:40:20;;;;;;;11.55;7.47;;;14.50;99.90;;;;;;5085357;28;20055;-71
2022/09/11 03:42:46;;;;;;;;;;;14.50;99.90;;;;;;5074788;28;20134;-72
2022/09/11 03:45:13;;;;;;;11.38;7.10;;;14.60;99.90;;;;;;5075456;28;19916;-72
2022/09/11 03:47:39;;;;;;;10.90;7.57;;;14.60;99.90;;;;;;5072065;28;20408;-72
2022/09/11 03:50:05;;;;;;;;;;;14.60;99.90;;;;;;5082455;28;20036;-72
2022/09/11 03:52:31;;;;;;;11.05;6.07;;;14.60;99.90;;;;;;5073404;28;19923;-72
2022/09/11 03:54:57;;;;;;;10.80;6.10;;;14.70;99.90;;;;;;5080654;28;20036;-72
2022/09/11 03:57:22;;;;;;;8.95;6.03;;;14.70;99.90;;;;;;5072317;28;20422;-72
2022/09/11 03:59:48;;;;;;;12.35;5.53;;;14.70;99.90;;;;;;5083684;28;20074;-72
2022/09/11 04:02:14;;;;;;;8.70;6.17;;;14.70;99.90;;;;;;5079820;28;20044;-71
2022/09/11 04:04:40;;;;;;;8.57;5.60;;;14.80;99.90;;;;;;5072466;28;20444;-71
2022/09/11 04:07:05;;;;;;;10.02;5.57;;;14.70;99.90;;;;;;5071326;28;20324;-71
2022/09/11 04:09:31;;;;;;;9.03;5.97;;;14.80;99.90;;;;;;5078535;28;20115;-71
2022/09/11 04:11:56;;;;;;;8.85;5.90;;;14.60;99.90;;;;;;5077182;28;20300;-71
2022/09/11 04:14:22;;;;;;;9.50;5.37;;;14.70;99.90;;;;;;5056941;28;20595;-71
2022/09/11 04:16:48;;;;;;;10.80;6.65;;;14.60;99.90;;;;;;5074094;28;20326;-71
2022/09/11 04:19:14;;;;;;;9.32;5.65;;;14.70;99.90;;;;;;5086613;28;20238;-71
2022/09/11 04:21:41;;;;;;;9.13;6.28;;;14.50;99.90;;;;;;5081281;28;20168;-71
2022/09/11 04:24:06;;;;;;;9.95;5.50;;;14.60;99.90;;;;;;5085686;28;20057;-71
2022/09/11 04:26:32;;;;;;;9.90;5.38;;;14.50;99.90;;;;;;5080351;28;20406;-71
2022/09/11 04:29:00;;;;;;;7.90;5.05;;;14.60;99.90;;;;;;5083955;28;20036;-71
2022/09/11 04:31:28;;;;;;;8.07;5.55;;;14.50;99.90;;;;;;5054300;28;20153;-71
2022/09/11 04:33:54;;;;;;;7.47;5.30;;;14.40;99.90;;;;;;5072170;28;20086;-71
2022/09/11 04:36:21;;;;;;;8.85;5.60;;;14.40;99.90;;;;;;5082648;28;20039;-71
2022/09/11 04:38:47;;;;;;;8.15;5.47;;;14.40;99.90;;;;;;5079764;28;20113;-72
2022/09/11 04:41:15;;;;;;;8.20;5.63;;;14.30;99.90;;;;;;5066406;28;20036;-71
2022/09/11 04:43:41;;;;;;;9.02;5.88;;;14.30;99.90;;;;;;5083328;28;20154;-71
2022/09/11 04:46:10;;;;;;;9.50;6.28;;;14.30;99.90;;;;;;5069330;28;20037;-72
2022/09/11 04:48:38;;;;;;;8.02;5.55;;;14.30;99.90;;;;;;5072369;28;20569;-72
2022/09/11 04:51:08;;;;;;;7.40;4.85;;;14.30;99.90;;;;;;5074716;28;20067;-72
2022/09/11 04:53:36;;;;;;;7.95;5.20;;;14.20;99.90;;;;;;5078893;28;20043;-72
2022/09/11 04:56:07;;;;;;;8.05;5.13;;;14.30;99.90;;;;;;5073455;28;20040;-71
2022/09/11 04:58:34;;;;;;;11.52;6.40;;;14.30;99.90;;;;;;5082455;28;20482;-71
2022/09/11 05:01:04;;;;;;;9.57;5.68;;;14.30;99.90;;;;;;5082577;28;20061;-72
2022/09/11 05:03:30;;;;;;;8.35;5.97;;;14.30;99.90;;;;;;5079269;28;20105;-72
2022/09/11 05:05:56;;;;;;;7.57;5.20;;;14.40;99.90;;;;;;5066835;28;20043;-72
2022/09/11 05:08:25;;;;;;;9.50;6.18;;;14.40;99.90;;;;;;5080149;28;20056;-72
2022/09/11 05:10:52;;;;;;;7.88;5.50;;;14.40;99.90;;;;;;5081254;28;20121;-71
2022/09/11 05:13:17;;;;;;;7.15;4.97;;;14.40;99.90;;;;;;5076640;28;20151;-72
2022/09/11 05:15:43;;;;;;;7.78;5.18;;;14.40;99.90;;;;;;5076543;28;20063;-72
2022/09/11 05:18:10;;;;;;;7.47;5.03;;;14.40;99.90;;;;;;5079565;28;20036;-71
2022/09/11 05:20:36;;;;;;;10.30;5.40;;;14.30;99.90;;;;;;5073864;28;20116;-71
2022/09/11 05:23:01;;;;;;;9.18;5.90;;;14.30;99.90;;;;;;5083430;28;20043;-72
2022/09/11 05:25:30;;;;;;;10.87;5.97;;;14.30;99.90;;;;;;5085206;28;20094;-71
2022/09/11 05:27:56;;;;;;;7.43;5.22;;;14.30;99.90;;;;;;5079560;28;20294;-72
2022/09/11 05:30:22;;;;;;;7.85;5.45;;;14.20;99.90;;;;;;5086383;28;20163;-71
2022/09/11 05:32:53;;;;;;;8.90;5.03;;;14.20;99.90;;;;;;5071557;28;20244;-71
2022/09/11 05:35:22;;;;;;;8.80;5.13;;;14.30;99.90;;;;;;5079833;28;20486;-71
2022/09/11 05:37:48;;;;;;;7.78;5.35;;;14.30;99.90;;;;;;5075290;28;20044;-71
2022/09/11 05:40:14;;;;;;;7.90;5.50;;;14.30;99.90;;;;;;5083933;28;20050;-72
2022/09/11 05:42:39;;;;;;;8.15;5.43;;;14.40;99.90;;;;;;5076499;28;20139;-71
2022/09/11 05:45:05;;;;;;;8.60;5.85;;;14.40;99.90;;;;;;5081668;28;20048;-71
2022/09/11 05:47:32;;;;;;;8.02;5.82;;;14.40;99.90;;;;;;5074029;28;20060;-71
2022/09/11 05:49:57;;;;;;;;;;;14.60;99.90;;;;;;5080953;28;20051;-71
2022/09/11 05:52:23;;;;;;;10.23;5.38;;;14.50;99.90;;;;;;5089487;28;19919;-70
2022/09/11 05:54:49;;;;;;;7.20;4.90;;;14.60;99.90;;;;;;5078302;28;20104;-71
2022/09/11 05:57:15;;;;;;;7.55;5.43;;;14.60;99.90;;;;;;5083256;28;20039;-71
2022/09/11 05:59:41;;;;;;;8.50;5.18;;;14.70;99.90;;;;;;5080369;28;20830;-71
2022/09/11 06:02:09;;;;;;;7.97;5.38;;;14.70;99.90;;;;;;5079410;28;20490;-71
2022/09/11 06:04:35;;;;;;;8.43;5.30;;;14.70;99.90;;;;;;5079615;28;20047;-71
2022/09/11 06:07:00;;;;;;;8.52;5.63;;;14.70;99.90;;;;;;5081614;28;20119;-71
2022/09/11 06:09:26;;;;;;;7.80;5.17;;;14.70;99.90;;;;;;5086072;28;20131;-71
2022/09/11 06:11:52;;;;;;;7.97;4.97;;;14.80;99.90;;;;;;5077390;28;20329;-71
2022/09/11 06:14:17;;;;;;;8.35;5.35;;;14.80;99.90;;;;;;5076560;28;20093;-71
2022/09/11 06:16:43;;;;;;;6.45;4.53;;;14.80;99.90;;;;;;5074716;28;20052;-71
2022/09/11 06:19:08;;;;;;;7.77;5.03;;;14.80;99.90;;;;;;5082373;28;20043;-71
2022/09/11 06:21:34;;;;;;;9.90;5.80;;;14.90;99.90;;;;;;5074676;28;20044;-71
2022/09/11 06:24:00;;;;;;;9.23;4.73;;;14.90;99.90;;;;;;5082726;28;20769;-71
2022/09/11 06:26:26;;;;;;;6.70;4.65;;;14.90;99.90;;;;;;5081821;28;20300;-71
2022/09/11 06:28:52;;;;;;;10.10;5.93;;;14.90;99.90;;;;;;5079393;28;20418;-71
2022/09/11 06:31:21;;;;;;;7.00;4.20;;;14.90;99.90;;;;;;5094913;28;20295;-71
2022/09/11 06:33:47;;;;;;;9.18;5.22;;;14.90;99.90;;;;;;5075306;28;20059;-71
2022/09/11 06:36:25;;;;;;;7.78;5.07;;;15.00;99.90;;;;;;5082492;28;20468;-71
2022/09/11 06:38:56;;;;;;;7.65;5.13;;;14.90;99.90;;;;;;5083340;28;20126;-71
2022/09/11 06:41:23;;;;;;;7.90;5.75;;;15.00;99.90;;;;;;5074516;28;20062;-71
2022/09/11 06:43:49;;;;;;;6.57;4.55;;;15.10;99.90;;;;;;5076507;28;20048;-71
2022/09/11 06:46:20;;;;;;;7.63;5.43;;;15.10;99.90;;;;;;5076207;28;20044;-71
2022/09/11 06:48:48;;;;;;;10.40;4.97;;;15.20;99.90;;;;;;5083962;28;20139;-71
2022/09/11 06:51:16;;;;;;;7.00;5.15;;;15.20;99.90;;;;;;5066493;28;20389;-71
2022/09/11 06:53:42;;;;;;;7.97;4.97;;;15.20;99.90;;;;;;5078633;28;20032;-71
2022/09/11 06:56:14;;;;;;;8.32;5.25;;;15.30;99.90;;;;;;5066337;28;20041;-71
2022/09/11 06:58:40;;;;;;;9.10;5.93;;;15.40;99.90;;;;;;5073184;28;20116;-71
2022/09/11 07:01:11;;;;;;;8.25;5.10;;;15.50;99.90;;;;;;5076741;28;20115;-71
2022/09/11 07:03:37;;;;;;;11.95;5.57;;;15.50;99.90;;;;;;5080016;28;20046;-71
2022/09/11 07:06:04;;;;;;;8.88;5.47;;;15.60;99.90;;;;;;5084379;28;20051;-72
2022/09/11 07:08:30;;;;;;;8.50;5.15;;;15.70;99.90;;;;;;5067796;28;20213;-71
2022/09/11 07:11:03;;;;;;;7.43;5.25;;;15.80;99.90;;;;;;5079451;28;20467;-73
2022/09/11 07:13:30;;;;;;;8.70;5.50;;;15.80;99.90;;;;;;5079255;28;20390;-71
2022/09/11 07:16:04;;;;;;;10.18;5.47;;;15.90;99.90;;;;;;5080696;28;20048;-71
2022/09/11 07:18:38;;;;;;;7.32;5.03;;;16.00;99.90;;;;;;5079083;28;20044;-71
2022/09/11 07:21:10;;;;;;;8.18;5.13;;;16.00;99.90;;;;;;5072403;28;20378;-71
2022/09/11 07:23:36;;;;;;;8.20;5.15;;;16.20;99.90;;;;;;5076143;28;20048;-71
2022/09/11 07:26:07;;;;;;;7.90;4.85;;;16.20;99.90;;;;;;5073999;28;20123;-71
2022/09/11 07:28:33;;;;;;;8.38;5.25;;;16.30;99.90;;;;;;5078981;28;20271;-71
2022/09/11 07:31:10;;;;;;;6.82;5.10;;;16.30;99.90;;;;;;5076666;28;20047;-71
2022/09/11 07:33:37;;;;;;;6.80;4.57;;;16.50;99.90;;;;;;5073110;28;20041;-71
2022/09/11 07:36:10;;;;;;;8.95;4.70;;;16.60;99.90;;;;;;5075259;28;20038;-72
2022/09/11 07:38:41;;;;;;;6.80;4.25;;;16.60;99.90;;;;;;5076876;28;20131;-72
2022/09/11 07:41:07;;;;;;;7.43;4.40;;;16.70;99.90;;;;;;5072263;22;20162;-71
2022/09/11 07:43:34;;;;;;;6.07;4.35;;;16.80;99.90;;;;;;5043234;28;20040;-71
2022/09/11 07:46:00;;;;;;;5.45;3.92;;;16.80;99.90;;;;;;5039089;28;20248;-71
2022/09/11 07:48:26;;;;;;;6.40;3.67;;;16.90;99.90;;;;;;5041576;28;20090;-71
2022/09/11 07:51:12;;;;;;;7.40;3.58;;;17.00;99.90;;;;;;5038773;28;20507;-71
2022/09/11 07:53:46;;;;;;;5.45;3.47;;;17.00;99.90;;;;;;5045876;28;20048;-71
2022/09/11 07:56:15;;;;;;;7.57;3.53;;;17.10;99.90;;;;;;5042350;28;20079;-71
2022/09/11 07:58:42;;;;;;;7.47;3.85;;;17.10;99.90;;;;;;5040584;28;20053;-71
2022/09/11 08:01:10;;;;;;;6.00;3.90;;;17.20;99.90;;;;;;5046420;28;20199;-72
2022/09/11 08:03:36;;;;;;;6.05;3.40;;;17.30;99.90;;;;;;5047058;28;20046;-72
2022/09/11 08:06:16;;;;;;;5.63;3.35;;;17.30;99.90;;;;;;5048062;28;20029;-71
2022/09/11 08:08:43;;;;;;;4.45;2.88;;;17.40;99.90;;;;;;5039607;28;20156;-72
2022/09/11 08:11:12;;;;;;;;;;;17.50;99.90;;;;;;5043320;28;20035;-72
2022/09/11 08:13:39;;;;;;;4.10;2.97;;;17.50;99.90;;;;;;5047283;28;19917;-72
2022/09/11 08:16:07;;;;;;;4.88;2.90;;;17.60;99.90;;;;;;5044693;28;20033;-72
2022/09/11 08:18:36;;;;;;;10.10;4.72;;;17.70;99.90;;;;;;5043186;28;20094;-71
2022/09/11 08:21:03;;;;;;;6.03;4.03;;;17.80;99.90;;;;;;5046813;28;20051;-72
2022/09/11 08:23:32;;;;;;;5.07;3.03;;;17.80;99.90;;;;;;5047030;28;20088;-71
2022/09/11 08:26:20;;;;;;;4.80;3.17;;;17.90;99.90;;;;;;5045082;28;20359;-72
2022/09/11 08:28:49;;;;;;;6.38;3.13;;;17.90;99.90;;;;;;5046613;28;20045;-71
2022/09/11 08:31:16;;;;;;;5.28;2.05;;;17.90;99.90;;;;;;5045359;28;20112;-72
2022/09/11 08:33:44;;;;;;;5.18;2.67;;;18.00;99.90;;;;;;5046267;28;20375;-72
2022/09/11 08:36:13;;;;;;;4.05;2.72;;;18.10;99.90;;;;;;5042713;28;20033;-71
2022/09/11 08:38:40;;;;;;;3.55;2.38;;;18.10;99.90;;;;;;5047084;28;20048;-72
2022/09/11 08:41:34;;;;;;;4.95;2.80;;;18.10;99.90;;;;;;5045211;28;20355;-72
2022/09/11 08:44:08;;;;;;;5.72;3.30;;;18.10;99.90;;;;;;5039531;28;20307;-72
2022/09/11 08:46:58;;;;;;;5.75;2.90;;;18.10;99.90;;;;;;5044294;28;20044;-72
2022/09/11 08:49:38;;;;;;;3.42;2.10;;;18.20;99.90;;;;;;5028691;28;20378;-72
2022/09/11 08:52:07;;;;;;;3.40;2.33;;;18.20;99.90;;;;;;5038191;28;20514;-72
2022/09/11 08:54:36;;;;;;;5.20;2.33;;;18.30;99.90;;;;;;5044929;28;20438;-72
2022/09/11 08:57:41;;;;;;;3.28;1.90;;;18.40;99.90;;;;;;5047129;28;20071;-72
2022/09/11 09:00:21;;;;;;;6.25;2.17;;;18.40;99.90;;;;;;5031605;28;20076;-71
2022/09/11 09:03:16;;;;;;;3.45;2.13;;;18.40;99.90;;;;;;5044652;28;20048;-72
2022/09/11 09:06:20;;;;;;;4.25;2.65;;;18.60;99.90;;;;;;5046218;28;20068;-72
2022/09/11 09:08:59;;;;;;;5.70;3.20;;;18.70;99.90;;;;;;5039321;28;20345;-72
2022/09/11 09:11:46;;;;;;;4.03;2.22;;;18.80;99.90;;;;;;5044473;28;20256;-71
2022/09/11 09:14:42;;;;;;;2.80;1.90;;;19.00;99.90;;;;;;5042382;28;20059;-71
2022/09/11 09:17:17;;;;;;;2.92;1.73;;;19.10;99.90;;;;;;5037147;28;20168;-72
2022/09/11 09:20:09;;;;;;;3.22;2.00;;;19.20;99.90;;;;;;5044439;28;20036;-71
2022/09/11 09:22:51;;;;;;;2.50;1.48;;;19.30;99.90;;;;;;5046731;28;20450;-71
2022/09/11 09:25:24;;;;;;;3.60;1.50;;;19.40;99.90;;;;;;5044592;28;20041;-71
2022/09/11 09:28:10;;;;;;;2.88;1.58;;;19.50;99.90;;;;;;5042346;28;20326;-72
2022/09/11 09:30:50;;;;;;;2.40;1.40;;;19.60;99.90;;;;;;5032785;28;20677;-71
2022/09/11 09:33:41;;;;;;;3.72;1.73;;;19.70;99.90;;;;;;5026051;28;20106;-71
2022/09/11 09:36:21;;;;;;;3.72;1.85;;;19.80;99.90;;;;;;5043633;28;20048;-72
2022/09/11 09:38:48;;;;;;;3.33;1.98;;;19.90;99.90;;;;;;5044153;28;20041;-72
2022/09/11 09:41:44;;;;;;;3.25;1.30;;;19.90;99.90;;;;;;5027102;28;20165;-71
2022/09/11 09:44:35;;;;;;;3.60;1.40;;;19.90;99.90;;;;;;5036895;28;20045;-71
2022/09/11 09:47:01;;;;;;;2.85;1.88;;;20.00;99.90;;;;;;5042980;28;20085;-71
2022/09/11 09:49:31;;;;;;;2.90;1.50;;;20.10;99.90;;;;;;5042834;28;20099;-71
2022/09/11 09:52:12;;;;;;;6.00;2.17;;;20.20;99.90;;;;;;5035008;28;20044;-71
2022/09/11 09:54:38;;;;;;;3.15;1.90;;;20.20;99.90;;;;;;5040849;28;20032;-71
2022/09/11 09:57:07;;;;;;;2.85;1.67;;;20.20;99.90;;;;;;5044821;28;20043;-71
2022/09/11 10:00:01;;;;;;;2.50;1.50;;;20.10;99.90;;;;;;5043782;28;20056;-71
2022/09/11 10:02:44;;;;;;;3.83;0.95;;;20.20;99.90;;;;;;5041803;28;20041;-71
2022/09/11 10:05:39;;;;;;;2.33;1.00;;;20.40;99.90;;;;;;5042993;28;20072;-71
2022/09/11 10:08:21;;;;;;;2.10;0.90;;;20.50;99.90;;;;;;5038609;28;20102;-71
2022/09/11 10:10:57;;;;;;;2.03;1.20;;;20.60;99.90;;;;;;5042489;28;20126;-71
2022/09/11 10:13:27;;;;;;;3.55;1.17;;;20.70;99.90;;;;;;5043158;28;20041;-71
2022/09/11 10:15:58;;;;;;;2.08;1.25;;;20.70;99.90;;;;;;5019646;28;20354;-71
2022/09/11 10:18:41;;;;;;;1.83;0.90;;;20.60;99.90;;;;;;5044888;28;20045;-71
2022/09/11 10:21:14;;;;;;;1.35;0.70;;;20.50;99.90;;;;;;5043110;28;20044;-71
2022/09/11 10:23:49;;;;;;;1.42;0.60;;;20.40;99.90;;;;;;5043048;28;20048;-71
2022/09/11 10:26:18;;;;;;;2.55;1.42;;;20.30;99.90;;;;;;5042509;28;20045;-71
2022/09/11 10:28:45;;;;;;;2.20;1.05;;;20.30;99.90;;;;;;5044636;28;20040;-71
2022/09/11 10:31:17;;;;;;;2.38;0.80;;;20.20;99.90;;;;;;5039043;28;20180;-71
2022/09/11 10:33:54;;;;;;;3.53;1.00;;;20.10;99.90;;;;;;5041971;28;20056;-71
2022/09/11 10:36:28;;;;;;;2.05;0.88;;;20.00;99.90;;;;;;5042200;28;20563;-71
2022/09/11 10:38:56;;;;;;;2.25;1.10;;;19.90;99.90;;;;;;5042819;28;20068;-71
2022/09/11 10:41:25;;;;;;;1.67;1.20;;;20.00;99.90;;;;;;5043479;28;20052;-71
2022/09/11 10:43:59;;;;;;;3.38;1.20;;;20.20;99.90;;;;;;5042437;28;20411;-71
2022/09/11 10:46:40;;;;;;;2.92;1.10;;;20.30;99.90;;;;;;5040362;28;20120;-71
2022/09/11 10:49:19;;;;;;;2.95;1.10;;;20.50;99.90;;;;;;5038347;28;20069;-71
2022/09/11 10:52:07;;;;;;;1.50;0.90;;;20.70;99.90;;;;;;5043882;28;20103;-71
2022/09/11 10:54:58;;;;;;;1.95;0.90;;;20.90;99.90;;;;;;5039316;28;20520;-72
2022/09/11 10:57:44;;;;;;;3.72;1.00;;;21.10;99.90;;;;;;5039138;28;20123;-71
2022/09/11 11:00:21;;;;;;;2.90;1.10;;;21.20;99.90;;;;;;5037608;28;20478;-72
2022/09/11 11:02:59;;;;;;;2.03;1.17;;;21.50;99.90;;;;;;5041900;28;20075;-71
2022/09/11 11:06:02;;;;;;;2.63;1.08;;;21.60;99.90;;;;;;5042588;28;20045;-71
2022/09/11 11:08:45;;;;;;;3.10;1.00;;;21.70;99.90;;;;;;5038489;28;20438;-72
2022/09/11 11:11:19;;;;;;;3.65;1.10;;;21.80;99.90;;;;;;5041525;28;20434;-72
2022/09/11 11:14:03;;;;;;;6.60;1.30;;;21.80;99.90;;;;;;5040152;28;20402;-73
2022/09/11 11:17:06;;;;;;;2.33;1.15;;;21.90;99.90;;;;;;5036199;28;20268;-72
2022/09/11 11:20:09;;;;;;;2.63;1.13;;;21.90;99.90;;;;;;5037957;28;20041;-72
2022/09/11 11:22:52;;;;;;;1.05;0.77;;;22.00;99.90;;;;;;5042133;28;20068;-71
2022/09/11 11:25:39;;;;;;;1.83;0.75;;;22.00;99.90;;;;;;5043165;28;20058;-72
2022/09/11 11:28:17;;;;;;;1.35;0.63;;;22.10;99.90;;;;;;5041775;28;20118;-72
2022/09/11 11:31:10;;;;;;;1.75;1.10;;;22.40;99.90;;;;;;5042884;28;20122;-72
2022/09/11 11:33:54;;;;;;;1.58;0.90;;;22.40;99.90;;;;;;5042002;28;20064;-72
2022/09/11 11:36:33;;;;;;;1.45;0.90;;;22.40;99.90;;;;;;5040341;28;20033;-72
2022/09/11 11:39:11;;;;;;;3.50;0.93;;;22.30;99.90;;;;;;5034791;28;20144;-72
2022/09/11 11:41:45;;;;;;;4.00;1.20;;;22.20;99.90;;;;;;5041206;28;20037;-72
2022/09/11 11:44:15;;;;;;;3.28;0.98;;;22.00;99.90;;;;;;5042447;28;20183;-72
2022/09/11 11:46:45;;;;;;;1.95;1.08;;;21.80;99.90;;;;;;5039232;28;20047;-72
2022/09/11 11:49:21;;;;;;;2.95;0.85;;;21.80;99.90;;;;;;5042129;28;20529;-72
2022/09/11 11:51:59;;;;;;;1.80;1.17;;;21.70;99.90;;;;;;5040521;28;20044;-72
2022/09/11 11:54:32;;;;;;;1.67;1.00;;;21.80;99.90;;;;;;5040714;28;20407;-72
2022/09/11 11:57:18;;;;;;;2.47;1.17;;;21.90;99.90;;;;;;5041292;28;20235;-72
2022/09/11 12:00:01;;;;;;;2.00;1.00;;;21.90;99.90;;;;;;5043052;28;20080;-72
2022/09/11 12:02:32;;;;;;;6.68;1.20;;;21.80;99.90;;;;;;5040774;28;20510;-72
2022/09/11 12:05:08;;;;;;;1.63;0.90;;;21.70;99.90;;;;;;5040201;28;20129;-72
2022/09/11 12:07:36;;;;;;;2.40;0.98;;;21.50;99.90;;;;;;5038708;28;20156;-72
2022/09/11 12:10:05;;;;;;;1.90;1.05;;;21.50;99.90;;;;;;5041878;28;20044;-72
2022/09/11 12:12:34;;;;;;;1.40;0.88;;;21.60;99.90;;;;;;5039669;28;20105;-72
2022/09/11 12:15:15;;;;;;;2.83;1.25;;;21.70;99.90;;;;;;5041560;28;20041;-72
2022/09/11 12:17:42;;;;;;;3.72;1.17;;;22.00;99.90;;;;;;5038321;28;20120;-72
2022/09/11 12:20:30;;;;;;;1.52;0.93;;;22.10;99.90;;;;;;5037320;28;20111;-72
2022/09/11 12:22:57;;;;;;;3.10;0.98;;;22.30;99.90;;;;;;5038011;28;20049;-72
2022/09/11 12:25:29;;;;;;;0.90;0.52;;;22.40;99.90;;;;;;5042946;28;20395;-72
2022/09/11 12:28:20;;;;;;;2.38;0.73;;;22.60;99.90;;;;;;5033793;28;20045;-72
2022/09/11 12:31:03;;;;;;;1.20;0.70;;;22.70;99.90;;;;;;5037762;28;20059;-71
2022/09/11 12:33:42;;;;;;;3.00;0.80;;;22.80;99.90;;;;;;5039158;28;20514;-72
2022/09/11 12:36:15;;;;;;;2.63;0.98;;;22.80;99.90;;;;;;5039693;28;20047;-71
2022/09/11 12:38:44;;;;;;;1.77;0.80;;;22.70;99.90;;;;;;5043539;28;20156;-71
2022/09/11 12:41:21;;;;;;;1.90;1.02;;;22.70;99.90;;;;;;5044955;28;20461;-71
2022/09/11 12:43:48;;;;;;;2.20;1.10;;;22.70;99.90;;;;;;5046100;28;20045;-72
2022/09/11 12:46:20;;;;;;;3.97;1.80;;;22.90;99.90;;;;;;5046105;28;20120;-72
2022/09/11 12:49:05;;;;;;;3.17;0.80;;;23.00;99.90;;;;;;5039453;28;20524;-72
2022/09/11 12:51:34;;;;;;;2.50;1.27;;;23.20;99.90;;;;;;5041574;28;20074;-72
2022/09/11 12:54:02;;;;;;;2.85;1.38;;;23.00;99.90;;;;;;5043680;28;20072;-71
2022/09/11 12:56:33;;;;;;;3.22;1.25;;;23.10;99.90;;;;;;5041886;28;20088;-71
2022/09/11 12:59:08;;;;;;;2.17;1.00;;;23.20;99.90;;;;;;5041226;28;20033;-72
2022/09/11 13:01:52;;;;;;;3.60;1.25;;;23.20;99.90;;;;;;5045560;28;20112;-71
2022/09/11 13:04:24;;;;;;;2.38;1.00;;;23.10;99.90;;;;;;5038871;28;20113;-72
2022/09/11 13:06:57;;;;;;;1.65;0.70;;;23.00;99.90;;;;;;5042428;28;20037;-71
2022/09/11 13:09:29;;;;;;;2.88;1.10;;;23.00;99.90;;;;;;5043447;28;20037;-71
2022/09/11 13:12:19;;;;;;;1.73;0.90;;;23.10;99.90;;;;;;5038747;28;20048;-71
2022/09/11 13:14:47;;;;;;;3.70;1.45;;;23.30;99.90;;;;;;5014289;28;20076;-72